Time;durP1;ratioP1;P1;durP2;ratioP2;P2;SDS_P1;SDS_P2;PMS_P1;PMS_P2;Temp;Humidity;BMP_temperature;BMP_pressure;BME280_temperature;BME280_humidity;BME280_pressure;Samples;Min_cycle;Max_cycle;Signal;HPM_P1;HPM_P2
2022/03/20 00:00:26;;;;;;;;;;;16.40;41.30;;;;;;5046312;28;43034;-82
2022/03/20 00:02:52;;;;;;;;;;;16.50;42.00;;;;;;5046470;28;42906;-81
2022/03/20 00:05:19;;;;;;;;;;;16.50;42.10;;;;;;5046000;28;43005;-81
2022/03/20 00:07:46;;;;;;;;;;;16.50;42.10;;;;;;5045460;28;43547;-81
2022/03/20 00:10:12;;;;;;;;;;;16.50;42.10;;;;;;5045974;28;42973;-80
2022/03/20 00:12:38;;;;;;;;;;;16.50;42.30;;;;;;5045972;28;44414;-79
2022/03/20 00:15:04;;;;;;;;;;;16.50;42.90;;;;;;5046021;28;42935;-78
2022/03/20 00:17:30;;;;;;;;;;;16.50;42.40;;;;;;5045718;28;43719;-77
2022/03/20 00:19:56;;;;;;;;;;;16.50;42.60;;;;;;5046302;28;42768;-77
2022/03/20 00:22:22;;;;;;;;;;;16.50;42.60;;;;;;5045289;28;42870;-78
2022/03/20 00:24:48;;;;;;;;;;;16.50;42.70;;;;;;5045695;28;43031;-78
2022/03/20 00:27:14;;;;;;;;;;;16.50;42.90;;;;;;5045059;28;43056;-78
2022/03/20 00:29:39;;;;;;;;;;;16.50;42.80;;;;;;5045787;28;43006;-78
2022/03/20 00:32:05;;;;;;;;;;;16.50;43.00;;;;;;5044952;28;42961;-80
2022/03/20 00:34:31;;;;;;;;;;;16.50;43.10;;;;;;5045059;28;42963;-79
2022/03/20 00:36:56;;;;;;;;;;;16.50;43.20;;;;;;5045002;28;43119;-78
2022/03/20 00:39:22;;;;;;;;;;;16.50;43.30;;;;;;5045077;28;42942;-79
2022/03/20 00:41:48;;;;;;;;;;;16.50;43.30;;;;;;5045363;28;43445;-77
2022/03/20 00:44:13;;;;;;;;;;;16.50;43.00;;;;;;5046020;28;43025;-78
2022/03/20 00:46:39;;;;;;;;;;;16.50;43.50;;;;;;5045865;28;42981;-77
2022/03/20 00:49:05;;;;;;;;;;;16.50;43.60;;;;;;5045368;28;42972;-78
2022/03/20 00:51:31;;;;;;;;;;;16.50;43.20;;;;;;5044674;28;43130;-78
2022/03/20 00:53:57;;;;;;;;;;;16.60;43.80;;;;;;5044628;28;42866;-78
2022/03/20 00:56:23;;;;;;;;;;;16.60;44.10;;;;;;5044380;28;43433;-77
2022/03/20 00:58:48;;;;;;;;;;;16.60;44.20;;;;;;5044532;28;42956;-78
2022/03/20 01:01:14;;;;;;;;;;;16.60;44.40;;;;;;5045350;28;42934;-79
2022/03/20 01:03:43;;;;;;;;;;;16.60;44.60;;;;;;5044877;28;42838;-79
2022/03/20 01:06:09;;;;;;;;;;;16.60;44.60;;;;;;5044814;28;43639;-77
2022/03/20 01:08:35;;;;;;;;;;;16.60;44.70;;;;;;5044919;28;43533;-78
2022/03/20 01:11:02;;;;;;;;;;;16.60;44.90;;;;;;5044788;28;44441;-78
2022/03/20 01:13:29;;;;;;;;;;;16.60;45.00;;;;;;5043060;28;43260;-77
2022/03/20 01:15:55;;;;;;;;;;;16.70;45.10;;;;;;5044849;28;43425;-79
2022/03/20 01:18:20;;;;;;;;;;;16.60;45.20;;;;;;5045145;28;42910;-79
2022/03/20 01:20:46;;;;;;;;;;;16.70;45.50;;;;;;5045064;28;42878;-79
2022/03/20 01:23:12;;;;;;;;;;;16.60;45.80;;;;;;5045224;28;42957;-77
2022/03/20 01:25:38;;;;;;;;;;;16.70;45.90;;;;;;5044773;28;42905;-78
2022/03/20 01:28:04;;;;;;;;;;;16.60;46.00;;;;;;5044690;28;42882;-81
2022/03/20 01:30:29;;;;;;;;;;;16.70;46.20;;;;;;5044333;28;43027;-78
2022/03/20 01:32:55;;;;;;;;;;;16.70;46.50;;;;;;5044730;28;43013;-78
2022/03/20 01:35:20;;;;;;;;;;;16.70;46.50;;;;;;5044735;28;43635;-77
2022/03/20 01:37:46;;;;;;;;;;;16.60;46.50;;;;;;5045111;28;42907;-78
2022/03/20 01:40:11;;;;;;;;;;;16.70;46.50;;;;;;5044507;28;42953;-78
2022/03/20 01:42:40;;;;;;;;;;;16.70;46.90;;;;;;5044666;28;42998;-78
2022/03/20 01:45:16;;;;;;;;;;;16.70;47.20;;;;;;5044440;28;43013;-78
2022/03/20 01:47:42;;;;;;;;;;;16.70;47.50;;;;;;5044149;28;42911;-80
2022/03/20 01:50:08;;;;;;;;;;;16.70;47.90;;;;;;5043716;28;43670;-79
2022/03/20 01:52:33;;;;;;;;;;;16.70;47.90;;;;;;5042940;28;44068;-78
2022/03/20 01:54:59;;;;;;;;;;;16.70;48.30;;;;;;5043261;28;43524;-79
2022/03/20 01:57:26;;;;;;;;;;;16.70;48.40;;;;;;5044296;28;43143;-78
2022/03/20 01:59:52;;;;;;;;;;;16.70;48.50;;;;;;5044610;28;43046;-78
2022/03/20 02:02:18;;;;;;;;;;;16.70;48.50;;;;;;5044025;28;42904;-79
2022/03/20 02:04:44;;;;;;;;;;;16.70;48.80;;;;;;5044228;28;43657;-79
2022/03/20 02:07:10;;;;;;;;;;;16.60;48.50;;;;;;5043694;28;43138;-78
2022/03/20 02:09:36;;;;;;;;;;;16.80;48.70;;;;;;5043304;28;43619;-80
2022/03/20 02:12:02;;;;;;;;;;;16.70;49.20;;;;;;5043308;28;42981;-76
2022/03/20 02:14:28;;;;;;;;;;;16.80;49.40;;;;;;5043694;28;43696;-78
2022/03/20 02:16:53;;;;;;;;;;;16.80;49.10;;;;;;5043957;28;43048;-78
2022/03/20 02:19:19;;;;;;;;;;;16.90;49.30;;;;;;5043615;28;43254;-77
2022/03/20 02:21:46;;;;;;;;;;;16.90;50.00;;;;;;5043985;28;42864;-78
2022/03/20 02:24:30;;;;;;;;;;;16.90;49.40;;;;;;5043534;28;42855;-78
2022/03/20 02:27:24;;;;;;;;;;;16.90;49.80;;;;;;5035595;28;42971;-77
2022/03/20 02:29:54;;;;;;;;;;;16.90;49.80;;;;;;5021887;28;42922;-77
2022/03/20 02:32:24;;;;;;;;;;;17.00;50.00;;;;;;5043234;28;43105;-77
2022/03/20 02:34:50;;;;;;;;;;;16.90;49.40;;;;;;5043585;28;44348;-78
2022/03/20 02:37:19;;;;;;;;;;;17.00;49.80;;;;;;5042965;28;42955;-77
2022/03/20 02:39:45;;;;;;;;;;;17.00;49.80;;;;;;5043359;28;43458;-78
2022/03/20 02:42:13;;;;;;;;;;;17.00;49.70;;;;;;5043811;28;43049;-80
2022/03/20 02:44:56;;;;;;;;;;;17.00;49.80;;;;;;5043550;28;43591;-78
2022/03/20 02:47:25;;;;;;;;;;;17.00;49.80;;;;;;5043810;28;42984;-78
2022/03/20 02:49:53;;;;;;;;;;;17.00;49.90;;;;;;5043710;28;43961;-79
2022/03/20 02:52:24;;;;;;;;;;;17.00;49.90;;;;;;5043753;28;43115;-79
2022/03/20 02:54:50;;;;;;;;;;;17.00;49.60;;;;;;5043504;28;43956;-80
2022/03/20 02:57:15;;;;;;;;;;;17.00;50.00;;;;;;5043049;28;43574;-79
2022/03/20 02:59:41;;;;;;;;;;;17.00;50.30;;;;;;5043039;28;43451;-78
2022/03/20 03:02:09;;;;;;;;;;;17.00;50.30;;;;;;5043117;28;42957;-80
2022/03/20 03:04:37;;;;;;;;;;;17.00;50.40;;;;;;5043472;28;43021;-79
2022/03/20 03:07:03;;;;;;;;;;;17.00;50.50;;;;;;5046714;28;42876;-79
2022/03/20 03:12:13;;;;;;;;;;;17.00;50.60;;;;;;5047050;28;42934;-79
2022/03/20 03:17:27;;;;;;;;;;;17.00;50.30;;;;;;5047283;28;42935;-80
2022/03/20 03:19:56;;;;;;;;;;;17.00;51.00;;;;;;5046766;28;43568;-80
2022/03/20 03:22:24;;;;;;;;;;;17.00;50.90;;;;;;5046576;28;42934;-79
2022/03/20 03:24:49;;;;;;;;;;;17.00;50.90;;;;;;5046732;28;43393;-79
2022/03/20 03:27:15;;;;;;;;;;;17.00;51.40;;;;;;5047211;28;42973;-78
2022/03/20 03:29:40;;;;;;;;;;;17.00;51.40;;;;;;5046551;28;43742;-79
2022/03/20 03:32:06;;;;;;;;;;;16.90;51.00;;;;;;5046940;28;43022;-79
2022/03/20 03:37:20;;;;;;;;;;;17.00;51.40;;;;;;5046961;28;43104;-81
2022/03/20 03:39:46;;;;;;;;;;;17.10;51.50;;;;;;5047070;28;43720;-80
2022/03/20 03:42:11;;;;;;;;;;;17.00;51.30;;;;;;5046684;28;42922;-79
2022/03/20 03:49:48;;;;;;;;;;;17.10;50.80;;;;;;5430865;22;43187;-80
2022/03/20 03:52:14;;;;;;;;;;;17.10;51.30;;;;;;5046655;28;42939;-80
2022/03/20 03:54:40;;;;;;;;;;;17.10;51.40;;;;;;5046218;28;43497;-82
2022/03/20 03:57:06;;;;;;;;;;;17.10;50.90;;;;;;5046252;28;42858;-81
2022/03/20 03:59:31;;;;;;;;;;;17.10;51.50;;;;;;5046187;28;43576;-81
2022/03/20 04:01:57;;;;;;;;;;;17.10;51.40;;;;;;5046544;28;43044;-81
2022/03/20 04:04:22;;;;;;;;;;;17.10;51.30;;;;;;5046215;28;43022;-80
2022/03/20 04:06:48;;;;;;;;;;;17.10;51.30;;;;;;5046186;28;42961;-80
2022/03/20 04:09:13;;;;;;;;;;;17.10;51.30;;;;;;5045837;28;43009;-81
2022/03/20 04:11:39;;;;;;;;;;;17.10;51.20;;;;;;5046082;28;42926;-81
2022/03/20 04:14:09;;;;;;;;;;;17.10;51.30;;;;;;5046132;28;44071;-74
2022/03/20 04:16:35;;;;;;;;;;;17.00;50.70;;;;;;5046001;28;43087;-75
2022/03/20 04:19:00;;;;;;;;;;;17.10;51.20;;;;;;5046213;28;42966;-77
2022/03/20 04:21:26;;;;;;;;;;;17.10;51.30;;;;;;5046510;28;43568;-82
2022/03/20 04:23:51;;;;;;;;;;;17.10;51.20;;;;;;5046180;28;43525;-82
2022/03/20 04:26:18;;;;;;;;;;;17.10;51.40;;;;;;5046621;28;43133;-82
2022/03/20 04:28:44;;;;;;;;;;;17.10;51.40;;;;;;5045005;28;43845;-82
2022/03/20 04:31:15;;;;;;;;;;;17.10;51.50;;;;;;5045782;28;43061;-83
2022/03/20 04:33:50;;;;;;;;;;;17.20;51.50;;;;;;5045181;28;42960;-82
2022/03/20 04:36:17;;;;;;;;;;;17.10;51.50;;;;;;5045207;28;42872;-82
2022/03/20 04:38:43;;;;;;;;;;;17.10;51.60;;;;;;5045463;28;43605;-82
2022/03/20 04:41:09;;;;;;;;;;;17.20;51.80;;;;;;5045342;28;42950;-80
2022/03/20 04:43:34;;;;;;;;;;;17.10;51.60;;;;;;5045434;28;42919;-78
2022/03/20 04:46:00;;;;;;;;;;;17.10;51.70;;;;;;5045504;28;43142;-79
2022/03/20 04:59:22;;;;;;;;;;;17.10;51.60;;;;;;5045288;28;43092;-79
2022/03/20 05:01:49;;;;;;;;;;;17.10;51.20;;;;;;5045718;28;43036;-76
2022/03/20 05:04:14;;;;;;;;;;;17.10;51.60;;;;;;5045184;28;42948;-77
2022/03/20 05:06:40;;;;;;;;;;;17.10;51.60;;;;;;5045183;28;43018;-78
2022/03/20 05:14:34;;;;;;;;;;;17.20;51.60;;;;;;5044514;28;43003;-78
2022/03/20 05:17:02;;;;;;;;;;;17.20;51.70;;;;;;5044853;28;43021;-77
2022/03/20 05:19:28;;;;;;;;;;;17.10;51.60;;;;;;5044456;28;42801;-78
2022/03/20 05:21:53;;;;;;;;;;;17.10;51.60;;;;;;5044978;28;43006;-77
2022/03/20 05:24:19;;;;;;;;;;;17.20;51.70;;;;;;5045087;28;43418;-79
2022/03/20 05:26:44;;;;;;;;;;;17.20;51.60;;;;;;5044897;28;42960;-78
2022/03/20 05:29:10;;;;;;;;;;;17.10;51.20;;;;;;5043050;28;43513;-79
2022/03/20 05:31:36;;;;;;;;;;;17.20;51.70;;;;;;5044556;28;42990;-80
2022/03/20 05:34:01;;;;;;;;;;;17.20;51.70;;;;;;5044980;28;44302;-79
2022/03/20 05:36:29;;;;;;;;;;;17.20;51.70;;;;;;5044743;28;42866;-79
2022/03/20 05:38:55;;;;;;;;;;;17.20;51.70;;;;;;5044551;28;43075;-78
2022/03/20 05:44:04;;;;;;;;;;;17.10;51.80;;;;;;5044681;28;42953;-81
2022/03/20 05:46:30;;;;;;;;;;;17.20;51.90;;;;;;5043369;28;43119;-78
2022/03/20 05:48:55;;;;;;;;;;;17.20;52.00;;;;;;5043193;28;43491;-81
2022/03/20 05:51:21;;;;;;;;;;;17.10;52.20;;;;;;5043391;28;43079;-80
2022/03/20 05:53:46;;;;;;;;;;;17.20;51.70;;;;;;5043151;28;43514;-79
2022/03/20 05:58:57;;;;;;;;;;;17.20;52.10;;;;;;5042824;28;43154;-79
2022/03/20 06:01:23;;;;;;;;;;;17.20;52.20;;;;;;5041516;28;43294;-78
2022/03/20 06:03:49;;;;;;;;;;;17.20;52.10;;;;;;5042571;28;43660;-80
2022/03/20 06:06:15;;;;;;;;;;;18.60;52.50;;;;;;5041506;28;43090;-77
2022/03/20 06:08:40;;;;;;;;;;;17.20;52.20;;;;;;5043413;28;43434;-78
2022/03/20 06:11:06;;;;;;;;;;;17.20;52.10;;;;;;5043063;28;43090;-78
2022/03/20 06:13:35;;;;;;;;;;;17.20;52.20;;;;;;5043880;28;42977;-78
2022/03/20 06:16:01;;;;;;;;;;;17.20;52.20;;;;;;5043746;28;43729;-78
2022/03/20 06:18:27;;;;;;;;;;;17.20;52.10;;;;;;5043288;28;42944;-78
2022/03/20 06:20:53;;;;;;;;;;;17.20;52.20;;;;;;5041452;28;43256;-79
2022/03/20 06:23:19;;;;;;;;;;;17.20;52.10;;;;;;5037050;28;43390;-79
2022/03/20 06:25:45;;;;;;;;;;;17.20;52.10;;;;;;5042474;28;42898;-79
2022/03/20 06:28:10;;;;;;;;;;;17.20;52.10;;;;;;5043308;28;43642;-79
2022/03/20 06:30:36;;;;;;;;;;;17.20;52.30;;;;;;5043131;28;43093;-79
2022/03/20 06:33:04;;;;;;;;;;;17.20;52.30;;;;;;5042704;28;43576;-79
2022/03/20 06:35:30;;;;;;;;;;;17.20;52.30;;;;;;5037536;28;43001;-78
2022/03/20 06:37:55;;;;;;;;;;;17.20;52.40;;;;;;5043257;28;43506;-77
2022/03/20 06:40:21;;;;;;;;;;;17.20;52.50;;;;;;5043379;28;43052;-79
2022/03/20 06:42:47;;;;;;;;;;;17.20;52.40;;;;;;5042825;28;43432;-78
2022/03/20 06:45:14;;;;;;;;;;;17.20;52.40;;;;;;5043027;28;43087;-79
2022/03/20 06:47:41;;;;;;;;;;;17.20;52.50;;;;;;5037518;28;43381;-79
2022/03/20 06:50:07;;;;;;;;;;;17.20;52.30;;;;;;5023470;28;42773;-79
2022/03/20 06:52:33;;;;;;;;;;;17.30;52.40;;;;;;5023550;28;44526;-79
2022/03/20 06:54:59;;;;;;;;;;;17.20;52.50;;;;;;5023333;28;42941;-79
2022/03/20 06:57:26;;;;;;;;;;;17.20;52.40;;;;;;5029449;28;44459;-78
2022/03/20 06:59:51;;;;;;;;;;;17.20;52.30;;;;;;5036089;28;43143;-80
2022/03/20 07:02:18;;;;;;;;;;;17.20;52.30;;;;;;5038960;28;43592;-80
2022/03/20 07:04:47;;;;;;;;;;;17.20;52.00;;;;;;5040854;28;43169;-77
2022/03/20 07:07:15;;;;;;;;;;;17.20;52.40;;;;;;5042836;28;43393;-77
2022/03/20 07:09:41;;;;;;;;;;;17.30;52.50;;;;;;5043176;28;42917;-79
2022/03/20 07:12:08;;;;;;;;;;;17.30;52.70;;;;;;5042967;28;43424;-79
2022/03/20 07:14:34;;;;;;;;;;;17.20;52.20;;;;;;5040141;28;43034;-78
2022/03/20 07:17:01;;;;;;;;;;;17.30;52.80;;;;;;5041404;28;43988;-79
2022/03/20 07:19:31;;;;;;;;;;;17.30;52.80;;;;;;5041356;28;43012;-79
2022/03/20 07:22:09;;;;;;;;;;;17.30;52.40;;;;;;5042605;28;43086;-79
2022/03/20 07:24:38;;;;;;;;;;;17.30;52.50;;;;;;5042542;28;43412;-78
2022/03/20 07:29:51;;;;;;;;;;;17.30;52.50;;;;;;5042979;28;43039;-78
2022/03/20 07:32:17;;;;;;;;;;;17.30;52.50;;;;;;5042301;28;43655;-78
2022/03/20 07:34:45;;;;;;;;;;;17.30;52.60;;;;;;5042301;28;43032;-79
2022/03/20 07:37:16;;;;;;;;;;;17.10;52.60;;;;;;5042681;28;44249;-78
2022/03/20 07:39:42;;;;;;;;;;;17.30;52.80;;;;;;5042271;28;43066;-77
2022/03/20 07:42:14;;;;;;;;;;;17.30;52.80;;;;;;5041296;28;43080;-78
2022/03/20 07:44:43;;;;;;;;;;;17.30;52.80;;;;;;5040899;28;42986;-78
2022/03/20 07:47:19;;;;;;;;;;;17.30;52.80;;;;;;5042963;28;43934;-79
2022/03/20 07:49:44;;;;;;;;;;;17.30;52.40;;;;;;5040142;28;43200;-78
2022/03/20 07:52:10;;;;;;;;;;;17.30;50.90;;;;;;5043207;28;43134;-78
2022/03/20 07:54:38;;;;;;;;;;;17.30;52.50;;;;;;5046587;28;43002;-78
2022/03/20 07:57:04;;;;;;;;;;;17.30;53.60;;;;;;5046706;28;42999;-78
2022/03/20 07:59:30;;;;;;;;;;;17.30;53.60;;;;;;5045928;28;42956;-77
2022/03/20 08:01:55;;;;;;;;;;;17.30;53.70;;;;;;5045955;28;43680;-79
2022/03/20 08:04:22;;;;;;;;;;;17.30;53.20;;;;;;5046304;28;43013;-78
2022/03/20 08:06:48;;;;;;;;;;;17.30;53.80;;;;;;5045550;28;42936;-79
2022/03/20 08:09:13;;;;;;;;;;;17.30;53.90;;;;;;5044693;28;43014;-79
2022/03/20 08:11:39;;;;;;;;;;;17.30;53.80;;;;;;5043882;28;43039;-80
2022/03/20 08:14:08;;;;;;;;;;;17.30;53.90;;;;;;5045011;28;42864;-79
2022/03/20 08:16:36;;;;;;;;;;;17.30;53.30;;;;;;5042964;28;44267;-79
2022/03/20 08:19:01;;;;;;;;;;;17.30;53.70;;;;;;5038194;28;43222;-76
2022/03/20 08:21:27;;;;;;;;;;;17.30;53.00;;;;;;5045729;28;42957;-78
2022/03/20 08:23:53;;;;;;;;;;;17.30;54.00;;;;;;5045473;28;42842;-82
2022/03/20 08:26:19;;;;;;;;;;;17.30;52.70;;;;;;5046223;28;43044;-81
2022/03/20 08:28:47;;;;;;;;;;;17.30;52.10;;;;;;5043481;28;42943;-79
2022/03/20 08:31:13;;;;;;;;;;;17.30;51.90;;;;;;5042338;28;43505;-81
2022/03/20 08:33:42;;;;;;;;;;;16.30;30.00;;;;;;5044317;28;43375;-90
2022/03/20 08:36:07;;;;;;;;;;;15.90;30.80;;;;;;5042227;28;43072;-78
2022/03/20 08:38:33;;;;;;;;;;;16.10;35.20;;;;;;5045339;28;42932;-76
2022/03/20 08:41:00;;;;;;;;;;;16.50;39.20;;;;;;5045445;28;43758;-90
2022/03/20 08:43:25;;;;;;;;;;;16.10;30.70;;;;;;5046530;28;43008;-88
2022/03/20 08:45:51;;;;;;;;;;;16.00;30.40;;;;;;5042732;28;43384;-84
2022/03/20 08:48:18;;;;;;;;;;;15.80;30.50;;;;;;5057821;28;43438;-89
2022/03/20 08:50:48;;;;;;;;;;;15.40;29.70;;;;;;5040473;28;42930;-88
2022/03/20 08:53:16;;;;;;;;;;;15.20;29.90;;;;;;5033644;28;43025;-87
2022/03/20 08:55:41;;;;;;;;;;;15.40;30.60;;;;;;5028748;28;43708;-84
2022/03/20 08:58:07;;;;;;;;;;;15.20;30.60;;;;;;5037655;28;43041;-77
2022/03/20 09:00:33;;;;;;;;;;;15.30;31.50;;;;;;5031018;28;43467;-84
2022/03/20 09:02:59;;;;;;;;;;;15.40;31.20;;;;;;5038510;28;43039;-90
2022/03/20 09:05:25;;;;;;;;;;;15.20;30.00;;;;;;5044994;28;43953;-91
2022/03/20 09:07:51;;;;;;;;;;;15.00;30.00;;;;;;5045439;28;43048;-87
2022/03/20 09:10:16;;;;;;;;;;;15.10;30.90;;;;;;5045132;28;43564;-91
2022/03/20 09:12:43;;;;;;;;;;;15.00;30.30;;;;;;5045784;28;43090;-92
2022/03/20 09:15:17;;;;;;;;;;;15.30;30.50;;;;;;5045235;28;43836;-88
2022/03/20 09:20:28;;;;;;;;;;;15.10;30.40;;;;;;5045732;28;43046;-89
2022/03/20 09:22:54;;;;;;;;;;;15.40;30.40;;;;;;5045462;28;42747;-92
2022/03/20 09:25:19;;;;;;;;;;;15.40;29.60;;;;;;5045379;28;43377;-91
2022/03/20 09:27:48;;;;;;;;;;;15.50;30.00;;;;;;5045671;28;42939;-91
2022/03/20 09:30:14;;;;;;;;;;;15.40;29.80;;;;;;5045490;28;43039;-91
2022/03/20 09:32:40;;;;;;;;;;;15.50;30.20;;;;;;5045154;28;42997;-90
2022/03/20 09:35:05;;;;;;;;;;;16.60;30.80;;;;;;5045034;28;43008;-91
2022/03/20 09:37:31;;;;;;;;;;;15.50;29.60;;;;;;5045231;28;42987;-86
2022/03/20 09:39:57;;;;;;;;;;;15.30;29.70;;;;;;5044905;28;43536;-85
2022/03/20 09:42:22;;;;;;;;;;;15.10;30.00;;;;;;5045215;28;42966;-88
2022/03/20 09:44:49;;;;;;;;;;;15.00;29.30;;;;;;5044623;28;43470;-87
2022/03/20 09:47:18;;;;;;;;;;;14.80;29.90;;;;;;5045081;28;42945;-87
2022/03/20 09:49:47;;;;;;;;;;;14.80;29.80;;;;;;5044197;28;44716;-87
2022/03/20 09:52:13;;;;;;;;;;;15.00;30.00;;;;;;5045095;28;42930;-87
2022/03/20 09:54:39;;;;;;;;;;;14.70;29.90;;;;;;5044771;28;43084;-87
2022/03/20 09:57:06;;;;;;;;;;;14.90;29.70;;;;;;5045092;28;42848;-85
2022/03/20 09:59:32;;;;;;;;;;;14.90;30.60;;;;;;5044664;28;42790;-88
2022/03/20 10:02:02;;;;;;;;;;;17.30;32.20;;;;;;5044686;28;42886;-87
2022/03/20 10:04:28;;;;;;;;;;;14.90;30.80;;;;;;5044884;28;42919;-87
2022/03/20 10:06:53;;;;;;;;;;;15.00;30.50;;;;;;5045058;28;42942;-88
2022/03/20 10:09:19;;;;;;;;;;;15.20;30.80;;;;;;5045291;28;43052;-87
2022/03/20 10:11:48;;;;;;;;;;;15.00;30.60;;;;;;5044900;28;42915;-87
2022/03/20 10:14:15;;;;;;;;;;;15.00;30.50;;;;;;5041557;28;44484;-89
2022/03/20 10:16:42;;;;;;;;;;;15.00;30.00;;;;;;5042273;28;42953;-89
2022/03/20 10:19:22;;;;;;;;;;;14.90;30.60;;;;;;5044125;28;42997;-89
2022/03/20 10:21:51;;;;;;;;;;;15.10;31.00;;;;;;5044312;28;43279;-83
2022/03/20 10:24:18;;;;;;;;;;;15.40;30.60;;;;;;5043846;28;43557;-89
2022/03/20 10:26:44;;;;;;;;;;;15.50;30.20;;;;;;5044485;28;42950;-89
2022/03/20 10:29:16;;;;;;;;;;;15.30;30.00;;;;;;5044664;28;42917;-88
2022/03/20 10:31:48;;;;;;;;;;;15.50;29.90;;;;;;5044320;28;42887;-88
2022/03/20 10:34:14;;;;;;;;;;;15.60;30.30;;;;;;5044353;28;43504;-89
2022/03/20 10:36:41;;;;;;;;;;;15.30;29.60;;;;;;5044609;28;42948;-88
2022/03/20 10:39:09;;;;;;;;;;;15.40;29.70;;;;;;5044282;28;43742;-88
2022/03/20 10:41:34;;;;;;;;;;;15.60;29.30;;;;;;5044597;28;42938;-86
2022/03/20 10:44:01;;;;;;;;;;;15.60;30.40;;;;;;5044068;28;42973;-87
2022/03/20 10:46:26;;;;;;;;;;;15.40;29.50;;;;;;5044366;28;42908;-89
2022/03/20 10:48:54;;;;;;;;;;;15.00;29.60;;;;;;5043947;28;43141;-79
2022/03/20 10:51:25;;;;;;;;;;;15.20;29.90;;;;;;5044146;28;42973;-85
2022/03/20 10:53:55;;;;;;;;;;;15.20;30.00;;;;;;5044174;28;43500;-80
2022/03/20 10:56:21;;;;;;;;;;;15.30;29.80;;;;;;5044232;28;42997;-85
2022/03/20 10:58:46;;;;;;;;;;;15.10;29.30;;;;;;5044061;28;43758;-88
2022/03/20 11:01:12;;;;;;;;;;;15.10;29.40;;;;;;5044173;28;43014;-77
2022/03/20 11:03:39;;;;;;;;;;;15.40;29.70;;;;;;5043784;28;43197;-87
2022/03/20 11:06:08;;;;;;;;;;;15.20;29.90;;;;;;5043735;28;42971;-86
2022/03/20 11:08:33;;;;;;;;;;;15.30;29.50;;;;;;5043810;28;43642;-87
2022/03/20 11:11:00;;;;;;;;;;;15.40;30.10;;;;;;5044148;28;43030;-88
2022/03/20 11:13:26;;;;;;;;;;;15.70;29.70;;;;;;5044365;28;42924;-87
2022/03/20 11:15:53;;;;;;;;;;;15.70;29.50;;;;;;5056370;28;42815;-85
2022/03/20 11:18:20;;;;;;;;;;;15.70;29.70;;;;;;5049616;28;42907;-84
2022/03/20 11:20:48;;;;;;;;;;;15.50;29.10;;;;;;5042285;28;43024;-87
2022/03/20 11:23:14;;;;;;;;;;;15.50;29.80;;;;;;5042704;28;44949;-87
2022/03/20 11:25:40;;;;;;;;;;;15.30;29.20;;;;;;5043779;28;43109;-87
2022/03/20 11:28:07;;;;;;;;;;;15.10;29.20;;;;;;5046986;28;43630;-77
2022/03/20 11:30:33;;;;;;;;;;;15.30;30.10;;;;;;5047299;28;42938;-90
2022/03/20 11:33:00;;;;;;;;;;;15.50;29.40;;;;;;5046386;28;42978;-84
2022/03/20 11:35:31;;;;;;;;;;;15.50;29.70;;;;;;5046502;28;43004;-84
2022/03/20 11:38:11;;;;;;;;;;;15.50;29.70;;;;;;5047277;28;43158;-87
2022/03/20 11:40:41;;;;;;;;;;;15.40;29.60;;;;;;5047142;28;42855;-86
2022/03/20 11:43:14;;;;;;;;;;;15.30;29.20;;;;;;5047297;28;43675;-83
2022/03/20 11:45:40;;;;;;;;;;;15.30;29.60;;;;;;5047498;28;42925;-84
2022/03/20 11:48:13;;;;;;;;;;;15.10;29.10;;;;;;5048644;28;43710;-87
2022/03/20 11:50:41;;;;;;;;;;;15.40;29.60;;;;;;5063026;28;42854;-80
2022/03/20 11:53:07;;;;;;;;;;;15.50;29.90;;;;;;5067638;28;43583;-81
2022/03/20 11:55:40;;;;;;;;;;;15.60;29.80;;;;;;5067054;28;43071;-82
2022/03/20 11:58:12;;;;;;;;;;;15.70;29.80;;;;;;5066720;28;43795;-87
2022/03/20 12:00:42;;;;;;;;;;;15.40;29.40;;;;;;5067638;28;42910;-85
2022/03/20 12:03:13;;;;;;;;;;;15.10;29.50;;;;;;5065681;28;42918;-88
2022/03/20 12:05:41;;;;;;;;;;;15.00;29.40;;;;;;5066656;28;42965;-86
2022/03/20 12:08:25;;;;;;;;;;;14.90;29.60;;;;;;5066443;28;43730;-87
2022/03/20 12:10:51;;;;;;;;;;;14.90;29.70;;;;;;5067496;28;42943;-86
2022/03/20 12:13:16;;;;;;;;;;;15.00;29.40;;;;;;5066427;28;43631;-86
2022/03/20 12:15:43;;;;;;;;;;;14.90;29.70;;;;;;5066414;28;42923;-89
2022/03/20 12:18:10;;;;;;;;;;;15.00;29.70;;;;;;5066158;28;43645;-88
2022/03/20 12:20:48;;;;;;;;;;;15.00;29.90;;;;;;5066446;28;43172;-85
2022/03/20 12:23:32;;;;;;;;;;;15.00;29.30;;;;;;5066173;28;43917;-89
2022/03/20 12:26:18;;;;;;;;;;;14.90;29.30;;;;;;5066584;28;43106;-80
2022/03/20 12:28:43;;;;;;;;;;;15.00;29.30;;;;;;5066304;28;42928;-88
2022/03/20 12:31:09;;;;;;;;;;;15.10;29.30;;;;;;5066274;28;42975;-83
2022/03/20 12:33:34;;;;;;;;;;;15.20;29.70;;;;;;5066255;28;43083;-84
2022/03/20 12:36:00;;;;;;;;;;;15.30;29.30;;;;;;5066643;28;42931;-90
2022/03/20 12:38:34;;;;;;;;;;;14.90;29.80;;;;;;5065662;28;42986;-84
2022/03/20 12:41:26;;;;;;;;;;;14.90;29.70;;;;;;5066468;28;42934;-90
2022/03/20 12:43:59;;;;;;;;;;;14.90;29.30;;;;;;5059898;28;43049;-87
2022/03/20 12:46:25;;;;;;;;;;;14.80;29.80;;;;;;5065612;28;42996;-79
2022/03/20 12:48:54;;;;;;;;;;;14.80;29.30;;;;;;5066018;28;43496;-86
2022/03/20 12:51:32;;;;;;;;;;;14.90;29.50;;;;;;5066208;28;42859;-90
2022/03/20 12:54:01;;;;;;;;;;;14.90;29.30;;;;;;5065622;28;42943;-80
2022/03/20 12:56:31;;;;;;;;;;;15.10;29.90;;;;;;5066826;28;42938;-89
2022/03/20 12:58:56;;;;;;;;;;;15.10;29.70;;;;;;5065685;28;42989;-89
2022/03/20 13:01:22;;;;;;;;;;;15.00;28.90;;;;;;5066571;28;43222;-89
2022/03/20 13:03:48;;;;;;;;;;;15.20;29.50;;;;;;5066084;28;42898;-84
2022/03/20 13:06:14;;;;;;;;;;;15.20;29.20;;;;;;5066848;28;42974;-90
2022/03/20 13:08:46;;;;;;;;;;;15.20;29.00;;;;;;5066607;28;43814;-88
2022/03/20 13:14:16;;;;;;;;;;;15.20;28.70;;;;;;5066976;28;42981;-78
2022/03/20 13:16:55;;;;;;;;;;;15.30;29.10;;;;;;5048199;28;42959;-81
2022/03/20 13:19:31;;;;;;;;;;;15.30;28.60;;;;;;5048114;28;44157;-87
2022/03/20 13:21:58;;;;;;;;;;;15.20;28.50;;;;;;5066773;28;43020;-86
2022/03/20 13:24:31;;;;;;;;;;;15.20;28.40;;;;;;5066106;28;42990;-88
2022/03/20 13:27:00;;;;;;;;;;;15.00;28.00;;;;;;5067205;28;42813;-78
2022/03/20 13:29:25;;;;;;;;;;;15.20;28.90;;;;;;5048131;28;43667;-89
2022/03/20 13:32:01;;;;;;;;;;;15.10;27.90;;;;;;5048310;28;43194;-89
2022/03/20 13:34:47;;;;;;;;;;;13.30;27.60;;;;;;5067500;28;43205;-80
2022/03/20 13:37:17;;;;;;;;;;;15.10;27.90;;;;;;5049279;28;42817;-91
2022/03/20 13:39:57;;;;;;;;;;;14.90;27.70;;;;;;5070590;28;42985;-82
2022/03/20 13:42:24;;;;;;;;;;;14.90;27.90;;;;;;5084789;28;42416;-85
2022/03/20 13:44:51;;;;;;;;;;;15.10;28.70;;;;;;5073966;28;43002;-85
2022/03/20 13:47:17;;;;;;;;;;;15.00;27.80;;;;;;5074765;28;42925;-86
2022/03/20 13:49:43;;;;;;;;;;;15.20;28.20;;;;;;5064812;28;43163;-88
2022/03/20 13:52:10;;;;;;;;;;;15.00;27.30;;;;;;5048326;28;43061;-87
2022/03/20 13:54:40;;;;;;;;;;;15.00;27.50;;;;;;5065926;28;43552;-86
2022/03/20 13:57:07;;;;;;;;;;;14.80;27.40;;;;;;5066378;28;43006;-89
2022/03/20 13:59:49;;;;;;;;;;;15.00;28.10;;;;;;5065068;28;43853;-88
2022/03/20 14:02:14;;;;;;;;;;;15.00;27.90;;;;;;5065517;28;42939;-88
2022/03/20 14:04:40;;;;;;;;;;;15.00;27.50;;;;;;5064982;28;42957;-87
2022/03/20 14:07:16;;;;;;;;;;;15.10;27.50;;;;;;5064933;28;42975;-85
2022/03/20 14:09:41;;;;;;;;;;;15.00;27.50;;;;;;5064973;28;43844;-86
2022/03/20 14:12:22;;;;;;;;;;;15.00;27.80;;;;;;5064795;28;42971;-87
2022/03/20 14:14:48;;;;;;;;;;;15.10;27.90;;;;;;5064855;28;43570;-85
2022/03/20 14:17:13;;;;;;;;;;;14.90;28.00;;;;;;5064909;28;42808;-90
2022/03/20 14:19:43;;;;;;;;;;;15.10;28.20;;;;;;5064807;28;42974;-90
2022/03/20 14:22:08;;;;;;;;;;;15.00;28.10;;;;;;5064705;28;42915;-90
2022/03/20 14:24:57;;;;;;;;;;;15.10;28.00;;;;;;5063858;28;43114;-86
2022/03/20 14:27:36;;;;;;;;;;;15.10;27.90;;;;;;5084268;27;42942;-90
2022/03/20 14:41:23;;;;;;;;;;;14.90;26.80;;;;;;5085032;28;43255;-87
2022/03/20 14:44:09;;;;;;;;;;;14.90;27.10;;;;;;5084943;28;42930;-87
2022/03/20 14:46:35;;;;;;;;;;;14.90;26.60;;;;;;5084491;28;42906;-85
2022/03/20 14:49:01;;;;;;;;;;;14.90;26.00;;;;;;5084333;28;43076;-85
2022/03/20 14:51:26;;;;;;;;;;;14.80;25.80;;;;;;5084578;28;43052;-87
2022/03/20 14:53:52;;;;;;;;;;;15.20;25.20;;;;;;5084998;28;43219;-88
2022/03/20 14:56:18;;;;;;;;;;;14.70;25.40;;;;;;5085116;28;42915;-87
2022/03/20 14:58:50;;;;;;;;;;;14.70;25.10;;;;;;5085023;28;43096;-81
2022/03/20 15:01:17;;;;;;;;;;;14.70;24.90;;;;;;5068749;28;45326;-89
2022/03/20 15:03:42;;;;;;;;;;;14.80;25.10;;;;;;5089009;28;42941;-88
2022/03/20 15:06:08;;;;;;;;;;;14.90;24.90;;;;;;5070616;28;44431;-89
2022/03/20 15:11:24;;;;;;;;;;;14.80;24.70;;;;;;5090530;28;43081;-91
2022/03/20 15:13:57;;;;;;;;;;;14.80;24.50;;;;;;5089354;28;42882;-79
2022/03/20 15:16:26;;;;;;;;;;;14.80;24.40;;;;;;5090074;28;43002;-85